Lucerne, Washington
Current Conditions -  °F | °C
As of 12:03 PM on Friday 19 Dec 2014 (Local Time) from KEAT Reporting Station
Scattered Clouds Scattered Clouds  
Wind Chill: 40°   Ceiling: Unl
Heat Index: 40°   Visibility: 10mi
Dew Point: 35°   Wind: 0mph
Humidity: 83%   Direction: NA
Pressure: 29.9"   Gusts: NA
Location:  47.9044°N, 120.153°W
Report Text: KEAT 192003Z AUTO 00000KT 10SM SCT006 04/02 A2990 RMK AO2 T00440017
Loading
Personal Weather Stations






























Interactive Weather Map New forecast layout! Learn more

10-Day Weather Forecast

Advertisements
Track Severe Weather on mobile